createdAt,value
2022-10-18T04:02:00.543Z,1024.68
2022-10-18T04:03:01.202Z,1024.71
2022-10-18T04:04:03.072Z,1024.69
2022-10-18T04:05:01.945Z,1024.69
2022-10-18T04:06:02.315Z,1024.71
2022-10-18T04:07:02.696Z,1024.71
2022-10-18T04:08:03.019Z,1024.68
2022-10-18T04:09:06.480Z,1024.72
2022-10-18T04:10:03.784Z,1024.62
2022-10-18T04:11:04.106Z,1024.67
2022-10-18T04:12:04.510Z,1024.64
2022-10-18T04:13:04.867Z,1024.63
2022-10-18T04:14:05.219Z,1024.62
2022-10-18T04:15:05.619Z,1024.64
2022-10-18T04:16:05.968Z,1024.60
2022-10-18T04:17:06.375Z,1024.64
2022-10-18T04:18:06.688Z,1024.63
2022-10-18T04:19:07.054Z,1024.65
2022-10-18T04:20:07.423Z,1024.61
2022-10-18T04:21:07.777Z,1024.59
2022-10-18T04:22:08.146Z,1024.52
2022-10-18T04:23:08.537Z,1024.55
2022-10-18T04:24:08.849Z,1024.54
2022-10-18T04:25:09.206Z,1024.54
2022-10-18T04:26:09.579Z,1024.58
2022-10-18T04:27:09.948Z,1024.59
2022-10-18T04:28:10.308Z,1024.61
2022-10-18T04:29:10.743Z,1024.57
2022-10-18T04:30:11.055Z,1024.62
2022-10-18T04:31:11.413Z,1024.68
2022-10-18T04:32:11.785Z,1024.63
2022-10-18T04:33:12.147Z,1024.62
2022-10-18T04:34:12.502Z,1024.62
2022-10-18T04:35:12.856Z,1024.63
2022-10-18T04:36:13.233Z,1024.64
2022-10-18T04:37:13.620Z,1024.57
2022-10-18T04:38:13.943Z,1024.54
2022-10-18T04:39:14.322Z,1024.53
2022-10-18T04:40:14.669Z,1024.58
2022-10-18T04:41:15.033Z,1024.62
2022-10-18T04:42:15.401Z,1024.67
2022-10-18T04:43:15.751Z,1024.60
2022-10-18T04:44:16.132Z,1024.60
2022-10-18T04:45:16.502Z,1024.58
2022-10-18T04:46:16.859Z,1024.59
2022-10-18T04:47:17.236Z,1024.59
2022-10-18T04:48:17.568Z,1024.61
2022-10-18T04:49:17.930Z,1024.56
2022-10-18T04:50:18.297Z,1024.62
2022-10-18T04:51:18.652Z,1024.59
2022-10-18T04:52:19.030Z,1024.61
2022-10-18T04:53:19.375Z,1024.60
2022-10-18T04:54:21.051Z,1024.61
2022-10-18T04:55:20.121Z,1024.61
2022-10-18T04:56:20.495Z,1024.62
2022-10-18T04:57:20.867Z,1024.63
2022-10-18T04:58:21.239Z,1024.65
2022-10-18T04:59:21.607Z,1024.71
2022-10-18T05:00:21.973Z,1024.70
2022-10-18T05:01:22.437Z,1024.65
2022-10-18T05:02:22.708Z,1024.64
2022-10-18T05:03:23.052Z,1024.66
2022-10-18T05:04:23.415Z,1024.65
2022-10-18T05:05:27.044Z,1024.64
2022-10-18T05:06:24.147Z,1024.62
2022-10-18T05:07:24.503Z,1024.60
2022-10-18T05:08:24.868Z,1024.64
2022-10-18T05:09:25.217Z,1024.64
2022-10-18T05:10:25.604Z,1024.60
2022-10-18T05:11:25.963Z,1024.55
2022-10-18T05:12:26.351Z,1024.56
2022-10-18T05:13:26.674Z,1024.56
2022-10-18T05:14:27.069Z,1024.55
2022-10-18T05:15:27.455Z,1024.58
2022-10-18T05:16:27.835Z,1024.55
2022-10-18T05:17:28.273Z,1024.56
2022-10-18T05:18:28.592Z,1024.54
2022-10-18T05:19:28.921Z,1024.56
2022-10-18T05:20:29.256Z,1024.56
2022-10-18T05:21:30.227Z,1024.55
2022-10-18T05:22:30.143Z,1024.56
2022-10-18T05:23:30.051Z,1024.54
2022-10-18T05:24:30.241Z,1024.50
2022-10-18T05:25:30.495Z,1024.54
2022-10-18T05:26:30.683Z,1024.53
2022-10-18T05:27:30.870Z,1024.58
2022-10-18T05:28:39.185Z,1024.62
2022-10-18T05:29:31.219Z,1024.57
2022-10-18T05:30:31.373Z,1024.55
2022-10-18T05:31:31.542Z,1024.58
2022-10-18T05:32:32.011Z,1024.59
2022-10-18T05:33:31.899Z,1024.57
2022-10-18T05:34:32.068Z,1024.55
2022-10-18T05:35:32.247Z,1024.57
2022-10-18T05:36:32.418Z,1024.53
2022-10-18T05:37:32.731Z,1024.59
2022-10-18T05:38:33.073Z,1024.56
2022-10-18T05:39:33.282Z,1024.57
2022-10-18T05:40:33.570Z,1024.55
2022-10-18T05:41:33.744Z,1024.55
2022-10-18T05:42:34.123Z,1024.56
2022-10-18T05:43:34.106Z,1024.65
2022-10-18T05:44:34.292Z,1024.63
2022-10-18T05:45:34.582Z,1024.61
2022-10-18T05:46:34.868Z,1024.61
2022-10-18T05:48:35.329Z,1024.60
2022-10-18T05:49:35.616Z,1024.58
2022-10-18T05:50:39.510Z,1024.59
2022-10-18T05:51:36.083Z,1024.56
2022-10-18T05:52:36.278Z,1024.62
2022-10-18T05:53:37.793Z,1024.66
2022-10-18T05:54:36.743Z,1024.66
2022-10-18T05:55:37.044Z,1024.64
2022-10-18T05:57:37.679Z,1024.73
2022-10-18T05:58:37.870Z,1024.74
2022-10-18T05:59:38.005Z,1024.77
2022-10-18T06:00:38.198Z,1024.77
2022-10-18T06:01:38.419Z,1024.81
2022-10-18T06:02:38.658Z,1024.80
2022-10-18T06:03:38.837Z,1024.84
2022-10-18T06:04:38.959Z,1024.84
2022-10-18T06:06:39.262Z,1024.91
2022-10-18T06:07:39.444Z,1024.88
2022-10-18T06:08:39.726Z,1024.90
2022-10-18T06:09:39.921Z,1024.88
2022-10-18T06:10:40.096Z,1024.86
2022-10-18T06:11:40.261Z,1024.85
2022-10-18T06:12:40.476Z,1024.88
2022-10-18T06:13:40.650Z,1024.82
2022-10-18T06:14:40.756Z,1024.87
2022-10-18T06:15:40.944Z,1024.85
2022-10-18T06:16:41.160Z,1024.84
2022-10-18T06:17:41.368Z,1024.91
2022-10-18T06:18:41.504Z,1024.90
2022-10-18T06:19:41.677Z,1024.89
2022-10-18T06:20:41.830Z,1024.92
2022-10-18T06:21:42.029Z,1024.91
2022-10-18T06:22:42.223Z,1024.87
2022-10-18T06:23:42.388Z,1024.89
2022-10-18T06:24:42.570Z,1024.86
2022-10-18T06:25:42.757Z,1024.87
2022-10-18T06:26:42.947Z,1024.83
2022-10-18T06:27:43.138Z,1024.86
2022-10-18T06:28:43.339Z,1024.87
2022-10-18T06:29:43.464Z,1024.89
2022-10-18T06:30:43.640Z,1024.85
2022-10-18T06:31:43.826Z,1024.88
2022-10-18T06:32:44.013Z,1024.86
2022-10-18T06:33:44.161Z,1024.88
2022-10-18T06:34:44.330Z,1024.94
2022-10-18T06:35:44.518Z,1024.94
2022-10-18T06:36:44.693Z,1024.90
2022-10-18T06:37:44.885Z,1024.92
2022-10-18T06:38:45.059Z,1024.92
2022-10-18T06:39:45.234Z,1024.92
2022-10-18T06:40:45.438Z,1024.93
2022-10-18T06:41:45.592Z,1024.94
2022-10-18T06:42:55.142Z,1024.88
2022-10-18T06:43:45.955Z,1024.85
2022-10-18T06:44:46.113Z,1024.87
2022-10-18T06:45:46.273Z,1024.86
2022-10-18T06:46:46.462Z,1024.91
2022-10-18T06:47:46.667Z,1024.89
2022-10-18T06:48:46.866Z,1024.89
2022-10-18T06:49:47.061Z,1024.95
2022-10-18T06:50:47.247Z,1024.96
2022-10-18T06:51:47.455Z,1025.01
2022-10-18T06:52:47.776Z,1025.02
2022-10-18T06:53:59.681Z,1025.04
2022-10-18T06:54:48.006Z,1025.08
2022-10-18T06:55:48.203Z,1025.10
2022-10-18T06:56:48.406Z,1025.12
2022-10-18T06:57:48.607Z,1025.08
2022-10-18T06:58:48.858Z,1025.10
2022-10-18T06:59:49.007Z,1025.12
2022-10-18T07:00:49.234Z,1025.10
2022-10-18T07:01:49.411Z,1025.16
2022-10-18T07:02:49.590Z,1025.16
2022-10-18T07:03:49.753Z,1025.18
2022-10-18T07:04:49.954Z,1025.14
2022-10-18T07:05:50.167Z,1025.20
2022-10-18T07:06:50.325Z,1025.24
2022-10-18T07:07:54.221Z,1025.24
2022-10-18T07:08:50.736Z,1025.24
2022-10-18T07:09:50.905Z,1025.26
2022-10-18T07:10:51.102Z,1025.26
2022-10-18T07:11:51.290Z,1025.25
2022-10-18T07:12:53.515Z,1025.32
2022-10-18T07:13:51.695Z,1025.39
2022-10-18T07:14:51.886Z,1025.40
2022-10-18T07:15:52.091Z,1025.35
2022-10-18T07:16:52.259Z,1025.40
2022-10-18T07:17:52.492Z,1025.42
2022-10-18T07:18:52.659Z,1025.38
2022-10-18T07:19:52.872Z,1025.45
2022-10-18T07:20:53.049Z,1025.41
2022-10-18T07:21:53.258Z,1025.39
2022-10-18T07:22:53.462Z,1025.44
2022-10-18T07:23:53.628Z,1025.39
2022-10-18T07:24:53.825Z,1025.44
2022-10-18T07:25:54.024Z,1025.45
2022-10-18T07:26:54.223Z,1025.51
2022-10-18T07:27:54.433Z,1025.51
2022-10-18T07:28:54.725Z,1025.51
2022-10-18T07:29:54.755Z,1025.59
2022-10-18T07:30:54.963Z,1025.54
2022-10-18T07:31:55.121Z,1025.55
2022-10-18T07:32:55.344Z,1025.54
2022-10-18T07:33:55.503Z,1025.53
2022-10-18T07:34:55.686Z,1025.46
2022-10-18T07:35:55.880Z,1025.46
2022-10-18T07:36:56.068Z,1025.44
2022-10-18T07:37:56.281Z,1025.39
2022-10-18T07:38:56.443Z,1025.41
2022-10-18T07:39:56.608Z,1025.37
2022-10-18T07:40:56.789Z,1025.35
2022-10-18T07:41:57.005Z,1025.32
2022-10-18T07:42:57.230Z,1025.40
2022-10-18T07:43:57.380Z,1025.46
2022-10-18T07:44:57.579Z,1025.50
2022-10-18T07:45:57.772Z,1025.57
2022-10-18T07:46:57.944Z,1025.63
2022-10-18T07:47:58.162Z,1025.64
2022-10-18T07:48:58.327Z,1025.67
2022-10-18T07:49:58.494Z,1025.62
2022-10-18T07:50:58.688Z,1025.70
2022-10-18T07:51:58.889Z,1025.77
2022-10-18T07:52:59.069Z,1025.86
2022-10-18T07:53:59.253Z,1025.84
2022-10-18T07:54:59.472Z,1025.75
2022-10-18T07:56:00.189Z,1025.74
2022-10-18T07:56:59.868Z,1025.63
2022-10-18T07:58:00.085Z,1025.60
2022-10-18T07:59:00.250Z,1025.62
2022-10-18T08:00:00.488Z,1025.67
2022-10-18T08:01:00.655Z,1025.71
2022-10-18T08:02:00.918Z,1025.73
2022-10-18T08:03:01.031Z,1025.74
2022-10-18T08:04:06.990Z,1025.68
2022-10-18T08:05:01.377Z,1025.61
2022-10-18T08:06:01.573Z,1025.57
2022-10-18T08:07:01.751Z,1025.54
2022-10-18T08:08:04.341Z,1025.52
2022-10-18T08:09:02.169Z,1025.58
2022-10-18T08:10:02.327Z,1025.56
2022-10-18T08:11:02.524Z,1025.62
2022-10-18T08:12:02.726Z,1025.60
2022-10-18T08:13:02.950Z,1025.64
2022-10-18T08:14:03.106Z,1025.63
2022-10-18T08:15:03.291Z,1025.60
2022-10-18T08:16:03.483Z,1025.54
2022-10-18T08:17:03.693Z,1025.51
2022-10-18T08:18:03.893Z,1025.51
2022-10-18T08:19:04.082Z,1025.50
2022-10-18T08:20:12.470Z,1025.53
2022-10-18T08:21:04.436Z,1025.57
2022-10-18T08:22:04.614Z,1025.61
2022-10-18T08:23:04.810Z,1025.57
2022-10-18T08:24:04.969Z,1025.50
2022-10-18T08:25:05.153Z,1025.49
2022-10-18T08:26:05.348Z,1025.54
2022-10-18T08:27:05.512Z,1025.52
2022-10-18T08:28:05.759Z,1025.52
2022-10-18T08:30:06.081Z,1025.47
2022-10-18T08:31:06.293Z,1025.46
2022-10-18T08:32:06.457Z,1025.40
2022-10-18T08:33:06.651Z,1025.42
2022-10-18T08:34:06.842Z,1025.46
2022-10-18T08:35:08.690Z,1025.44
2022-10-18T08:36:07.193Z,1025.44
2022-10-18T08:37:07.404Z,1025.44
2022-10-18T08:38:07.592Z,1025.38
2022-10-18T08:39:07.738Z,1025.38
2022-10-18T08:40:07.942Z,1025.42
2022-10-18T08:41:08.124Z,1025.48
2022-10-18T08:42:08.307Z,1025.51
2022-10-18T08:43:08.525Z,1025.50
2022-10-18T08:44:08.677Z,1025.43
2022-10-18T08:45:17.980Z,1025.43
2022-10-18T08:46:09.092Z,1025.40
2022-10-18T08:47:09.290Z,1025.48
2022-10-18T08:48:09.476Z,1025.51
2022-10-18T08:49:09.644Z,1025.56
2022-10-18T08:50:09.848Z,1025.64
2022-10-18T08:51:10.032Z,1025.68
2022-10-18T08:52:10.233Z,1025.61
2022-10-18T08:53:10.440Z,1025.61
2022-10-18T08:54:10.596Z,1025.58
2022-10-18T08:55:10.801Z,1025.64
2022-10-18T08:56:11.021Z,1025.65
2022-10-18T08:57:11.223Z,1025.62
2022-10-18T08:58:11.402Z,1025.64
2022-10-18T08:59:11.557Z,1025.60
2022-10-18T09:00:11.741Z,1025.62
2022-10-18T09:01:11.947Z,1025.59
2022-10-18T09:02:12.153Z,1025.62
2022-10-18T09:03:12.396Z,1025.61
2022-10-18T09:04:12.518Z,1025.60
2022-10-18T09:05:12.796Z,1025.52
2022-10-18T09:06:12.924Z,1025.57
2022-10-18T09:07:13.105Z,1025.60
2022-10-18T09:08:13.328Z,1025.57
2022-10-18T09:09:13.494Z,1025.56
2022-10-18T09:10:13.707Z,1025.60
2022-10-18T09:11:13.894Z,1025.57
2022-10-18T09:12:14.056Z,1025.62
2022-10-18T09:13:14.261Z,1025.59
2022-10-18T09:14:14.436Z,1025.62
2022-10-18T09:15:14.656Z,1025.64
2022-10-18T09:16:14.783Z,1025.60
2022-10-18T09:17:16.137Z,1025.66
2022-10-18T09:18:15.219Z,1025.67
2022-10-18T09:19:15.308Z,1025.60
2022-10-18T09:20:15.486Z,1025.62
2022-10-18T09:21:15.687Z,1025.63
2022-10-18T09:22:15.893Z,1025.68
2022-10-18T09:23:16.099Z,1025.70
2022-10-18T09:24:16.231Z,1025.63
2022-10-18T09:25:16.443Z,1025.64
2022-10-18T09:26:16.612Z,1025.64
2022-10-18T09:27:16.765Z,1025.70
2022-10-18T09:28:16.989Z,1025.69
2022-10-18T09:29:17.205Z,1025.72
2022-10-18T09:30:17.346Z,1025.68
2022-10-18T09:31:17.505Z,1025.71
2022-10-18T09:32:17.699Z,1025.74
2022-10-18T09:33:17.888Z,1025.74
2022-10-18T09:34:18.055Z,1025.72
2022-10-18T09:35:18.262Z,1025.76
2022-10-18T09:36:18.454Z,1025.77
2022-10-18T09:37:18.600Z,1025.75
2022-10-18T09:38:18.844Z,1025.75
2022-10-18T09:39:18.991Z,1025.76
2022-10-18T09:40:19.337Z,1025.79
2022-10-18T09:41:19.383Z,1025.76
2022-10-18T09:42:19.536Z,1025.78
2022-10-18T09:43:19.772Z,1025.78
2022-10-18T09:44:19.936Z,1025.80
2022-10-18T09:45:20.148Z,1025.85
2022-10-18T09:46:20.328Z,1025.78
2022-10-18T09:47:20.545Z,1025.75
2022-10-18T09:48:20.708Z,1025.76
2022-10-18T09:49:20.866Z,1025.73
2022-10-18T09:50:21.065Z,1025.75
2022-10-18T09:51:21.229Z,1025.74
2022-10-18T09:52:21.423Z,1025.73
2022-10-18T09:53:21.603Z,1025.76
2022-10-18T09:54:21.769Z,1025.77
2022-10-18T09:55:21.945Z,1025.81
2022-10-18T09:56:22.144Z,1025.77
2022-10-18T09:57:22.365Z,1025.82
2022-10-18T09:58:22.573Z,1025.79
2022-10-18T09:59:22.693Z,1025.73
2022-10-18T10:00:22.906Z,1025.72
2022-10-18T10:01:23.069Z,1025.69
2022-10-18T10:02:23.311Z,1025.79
2022-10-18T10:03:23.453Z,1025.76
2022-10-18T10:04:23.657Z,1025.80
2022-10-18T10:05:23.812Z,1025.73
2022-10-18T10:06:24.021Z,1025.75
2022-10-18T10:07:24.205Z,1025.76
2022-10-18T10:08:24.417Z,1025.75
2022-10-18T10:09:24.595Z,1025.71
2022-10-18T10:10:24.771Z,1025.70
2022-10-18T10:11:24.974Z,1025.73
2022-10-18T10:12:25.138Z,1025.73
2022-10-18T10:13:25.341Z,1025.85
2022-10-18T10:14:25.566Z,1025.82
2022-10-18T10:15:28.132Z,1025.78
2022-10-18T10:16:25.976Z,1025.75
2022-10-18T10:17:26.162Z,1025.70
2022-10-18T10:18:26.419Z,1025.69
2022-10-18T10:19:26.609Z,1025.69
2022-10-18T10:20:26.759Z,1025.71
2022-10-18T10:21:26.970Z,1025.66
2022-10-18T10:22:27.167Z,1025.68
2022-10-18T10:23:27.347Z,1025.68
2022-10-18T10:24:30.396Z,1025.69
2022-10-18T10:25:27.731Z,1025.67
2022-10-18T10:26:27.923Z,1025.62
2022-10-18T10:27:28.120Z,1025.62
2022-10-18T10:28:28.382Z,1025.59
2022-10-18T10:29:44.034Z,1025.63
2022-10-18T10:30:28.732Z,1025.66
2022-10-18T10:31:28.924Z,1025.65
2022-10-18T10:32:29.113Z,1025.58
2022-10-18T10:33:29.338Z,1025.63
2022-10-18T10:34:29.542Z,1025.63
2022-10-18T10:35:41.381Z,1025.64
2022-10-18T10:36:29.909Z,1025.64
2022-10-18T10:37:30.410Z,1025.53
2022-10-18T10:38:30.312Z,1025.59
2022-10-18T10:39:30.522Z,1025.58
2022-10-18T10:40:30.725Z,1025.60
2022-10-18T10:42:31.394Z,1025.61
2022-10-18T10:43:40.004Z,1025.60
2022-10-18T10:44:31.492Z,1025.62
2022-10-18T10:45:31.727Z,1025.64
2022-10-18T10:46:31.893Z,1025.55
2022-10-18T10:47:32.098Z,1025.60
2022-10-18T10:48:33.355Z,1025.57
2022-10-18T10:49:40.178Z,1025.58
2022-10-18T10:51:32.928Z,1025.70
2022-10-18T10:52:33.097Z,1025.58
2022-10-18T10:53:33.289Z,1025.70
2022-10-18T10:54:33.482Z,1025.67
2022-10-18T10:55:35.711Z,1025.73
2022-10-18T10:56:33.906Z,1025.72
2022-10-18T10:57:34.097Z,1025.77
2022-10-18T10:58:34.322Z,1025.86
2022-10-18T10:59:34.516Z,1025.74
2022-10-18T11:00:34.673Z,1025.76
2022-10-18T11:01:34.868Z,1025.71
2022-10-18T11:02:35.529Z,1025.71
2022-10-18T11:03:35.355Z,1025.78
2022-10-18T11:04:35.499Z,1025.78
2022-10-18T11:05:35.712Z,1025.77
2022-10-18T11:06:35.893Z,1025.76
2022-10-18T11:07:36.084Z,1025.72
2022-10-18T11:08:36.385Z,1025.78
2022-10-18T11:09:36.483Z,1025.79
2022-10-18T11:10:36.696Z,1025.83
2022-10-18T11:11:36.882Z,1025.83
2022-10-18T11:12:37.088Z,1025.80
2022-10-18T11:13:37.322Z,1025.87
2022-10-18T11:14:37.492Z,1025.75
2022-10-18T11:15:37.720Z,1025.84
2022-10-18T11:16:37.888Z,1025.84
2022-10-18T11:17:38.086Z,1025.82
2022-10-18T11:18:38.334Z,1025.79
2022-10-18T11:19:38.495Z,1025.75
2022-10-18T11:20:38.660Z,1025.86
2022-10-18T11:21:38.869Z,1025.77
2022-10-18T11:22:39.063Z,1025.75
2022-10-18T11:23:39.288Z,1025.73
2022-10-18T11:24:39.432Z,1025.76
2022-10-18T11:25:39.638Z,1025.74
2022-10-18T11:26:42.149Z,1025.76
2022-10-18T11:27:40.028Z,1025.78
2022-10-18T11:28:40.277Z,1025.76
2022-10-18T11:29:40.419Z,1025.75
2022-10-18T11:30:40.622Z,1025.81
2022-10-18T11:31:40.806Z,1025.72
2022-10-18T11:32:40.967Z,1025.73
2022-10-18T11:34:07.067Z,1025.67
2022-10-18T11:34:41.341Z,1025.70
2022-10-18T11:35:41.511Z,1025.66
2022-10-18T11:36:49.301Z,1025.69
2022-10-18T11:37:42.341Z,1025.70
2022-10-18T11:38:42.078Z,1025.72
2022-10-18T11:39:42.237Z,1025.74
2022-10-18T11:40:42.451Z,1025.73
2022-10-18T11:41:42.622Z,1025.74
2022-10-18T11:42:42.820Z,1025.81
2022-10-18T11:44:01.097Z,1025.68
2022-10-18T11:44:43.217Z,1025.67
2022-10-18T11:45:43.420Z,1025.74
2022-10-18T11:46:43.638Z,1025.74
2022-10-18T11:47:43.803Z,1025.77
2022-10-18T11:48:44.019Z,1025.70
2022-10-18T11:49:44.188Z,1025.73
2022-10-18T11:50:44.386Z,1025.76
2022-10-18T11:52:06.639Z,1025.73
2022-10-18T11:52:44.815Z,1025.70
2022-10-18T11:53:49.556Z,1025.73
2022-10-18T11:54:45.206Z,1025.77
2022-10-18T11:55:45.393Z,1025.61
2022-10-18T11:56:45.612Z,1025.71
2022-10-18T11:57:45.817Z,1025.76
2022-10-18T11:58:46.055Z,1025.74
2022-10-18T11:59:46.225Z,1025.76
2022-10-18T12:00:46.428Z,1025.80
2022-10-18T12:01:46.646Z,1025.66
2022-10-18T12:02:46.952Z,1025.64
2022-10-18T12:03:47.055Z,1025.68
2022-10-18T12:04:58.412Z,1025.64
2022-10-18T12:05:47.513Z,1025.61
2022-10-18T12:06:47.645Z,1025.64
2022-10-18T12:07:47.883Z,1025.65
2022-10-18T12:08:48.103Z,1025.62
2022-10-18T12:11:03.975Z,1025.57
2022-10-18T12:11:51.209Z,1025.56
2022-10-18T12:12:48.874Z,1025.56
2022-10-18T12:13:49.116Z,1025.62
2022-10-18T12:14:49.294Z,1025.56
2022-10-18T12:15:49.490Z,1025.52
2022-10-18T12:16:53.635Z,1025.53
2022-10-18T12:17:50.345Z,1025.51
2022-10-18T12:18:50.217Z,1025.57
2022-10-18T12:19:50.287Z,1025.50
2022-10-18T12:20:50.449Z,1025.48
2022-10-18T12:21:50.657Z,1025.47
2022-10-18T12:22:50.864Z,1025.48
2022-10-18T12:23:51.053Z,1025.54
2022-10-18T12:24:51.265Z,1025.57
2022-10-18T12:25:51.404Z,1025.42
2022-10-18T12:26:51.605Z,1025.51
2022-10-18T12:27:51.943Z,1025.51
2022-10-18T12:28:52.085Z,1025.48
2022-10-18T12:29:52.196Z,1025.55
2022-10-18T12:30:52.366Z,1025.43
2022-10-18T12:31:52.580Z,1025.54
2022-10-18T12:33:03.365Z,1025.65
2022-10-18T12:33:52.989Z,1025.56
2022-10-18T12:34:53.169Z,1025.48
2022-10-18T12:35:53.367Z,1025.59
2022-10-18T12:36:53.652Z,1025.53
2022-10-18T12:37:53.805Z,1025.53
2022-10-18T12:38:53.989Z,1025.58
2022-10-18T12:40:13.157Z,1025.61
2022-10-18T12:40:54.375Z,1025.63
2022-10-18T12:41:54.605Z,1025.55
2022-10-18T12:42:54.787Z,1025.74
2022-10-18T12:43:55.003Z,1025.55
2022-10-18T12:44:55.221Z,1025.57
2022-10-18T12:45:55.416Z,1025.55
2022-10-18T12:46:55.672Z,1025.54
2022-10-18T12:47:55.805Z,1025.52
2022-10-18T12:48:56.053Z,1025.55
2022-10-18T12:49:56.203Z,1025.50
2022-10-18T12:50:56.373Z,1025.54
2022-10-18T12:51:56.526Z,1025.58
2022-10-18T12:52:56.706Z,1025.49
2022-10-18T12:53:56.917Z,1025.51
2022-10-18T12:54:57.077Z,1025.49
2022-10-18T12:55:57.273Z,1025.49
2022-10-18T12:56:57.446Z,1025.46
2022-10-18T12:57:57.656Z,1025.53
2022-10-18T12:58:57.881Z,1025.46
2022-10-18T12:59:58.046Z,1025.52
2022-10-18T13:00:58.245Z,1025.48
2022-10-18T13:01:58.509Z,1025.51
2022-10-18T13:02:58.609Z,1025.53
2022-10-18T13:03:58.821Z,1025.47
2022-10-18T13:06:01.581Z,1025.60
2022-10-18T13:06:59.346Z,1025.47
2022-10-18T13:07:59.536Z,1025.59
2022-10-18T13:08:59.768Z,1025.57
2022-10-18T13:09:59.928Z,1025.61
2022-10-18T13:11:00.138Z,1025.56
2022-10-18T13:12:02.017Z,1025.62
2022-10-18T13:13:05.632Z,1025.59
2022-10-18T13:14:00.795Z,1025.56
2022-10-18T13:15:13.425Z,1025.51
2022-10-18T13:16:01.180Z,1025.55
2022-10-18T13:17:01.410Z,1025.55
2022-10-18T13:18:01.590Z,1025.55
2022-10-18T13:19:01.818Z,1025.54
2022-10-18T13:20:24.940Z,1025.56
2022-10-18T13:21:02.170Z,1025.49
2022-10-18T13:22:02.327Z,1025.50
2022-10-18T13:23:02.650Z,1025.47
2022-10-18T13:24:02.774Z,1025.55
2022-10-18T13:25:02.968Z,1025.53
2022-10-18T13:26:03.184Z,1025.51
2022-10-18T13:27:24.361Z,1025.58
2022-10-18T13:28:03.570Z,1025.56
2022-10-18T13:29:03.887Z,1025.49
2022-10-18T13:30:04.021Z,1025.47
2022-10-18T13:31:04.157Z,1025.45
2022-10-18T13:32:04.396Z,1025.45
2022-10-18T13:33:04.538Z,1025.49
2022-10-18T13:34:04.757Z,1025.47
2022-10-18T13:35:04.930Z,1025.46
2022-10-18T13:36:05.141Z,1025.46
2022-10-18T13:37:05.343Z,1025.53
2022-10-18T13:38:05.544Z,1025.50
2022-10-18T13:39:05.753Z,1025.54
2022-10-18T13:40:05.924Z,1025.54
2022-10-18T13:41:06.110Z,1025.60
2022-10-18T13:42:06.273Z,1025.57
2022-10-18T13:43:06.501Z,1025.54
2022-10-18T13:44:06.707Z,1025.55
2022-10-18T13:45:06.873Z,1025.49
2022-10-18T13:46:07.038Z,1025.50
2022-10-18T13:47:07.236Z,1025.50
2022-10-18T13:48:07.440Z,1025.49
2022-10-18T13:49:07.650Z,1025.51
2022-10-18T13:50:07.838Z,1025.49
2022-10-18T13:51:08.004Z,1025.51
2022-10-18T13:52:08.190Z,1025.46
2022-10-18T13:53:08.395Z,1025.52
2022-10-18T13:54:08.641Z,1025.45
2022-10-18T13:55:08.788Z,1025.59
2022-10-18T13:56:08.993Z,1025.49
2022-10-18T13:57:09.158Z,1025.49
2022-10-18T13:58:09.384Z,1025.46
2022-10-18T13:59:16.556Z,1025.50
2022-10-18T14:00:09.750Z,1025.46
2022-10-18T14:01:14.077Z,1025.49
2022-10-18T14:02:10.159Z,1025.55
2022-10-18T14:03:26.720Z,1025.54
2022-10-18T14:04:10.508Z,1025.55
2022-10-18T14:05:24.484Z,1025.51
2022-10-18T14:06:10.860Z,1025.47
2022-10-18T14:07:11.048Z,1025.51
2022-10-18T14:08:11.232Z,1025.48
2022-10-18T14:09:25.476Z,1025.52
2022-10-18T14:10:11.600Z,1025.52
2022-10-18T14:11:11.793Z,1025.52
2022-10-18T14:12:12.000Z,1025.55
2022-10-18T14:13:12.172Z,1025.54
2022-10-18T14:14:12.426Z,1025.61
2022-10-18T14:15:12.580Z,1025.59
2022-10-18T14:16:12.794Z,1025.71
2022-10-18T14:17:17.624Z,1025.53
2022-10-18T14:18:13.158Z,1025.60
2022-10-18T14:19:13.386Z,1025.59
2022-10-18T14:20:13.535Z,1025.59
2022-10-18T14:21:16.810Z,1025.61
2022-10-18T14:22:13.922Z,1025.55
2022-10-18T14:23:14.108Z,1025.67
2022-10-18T14:24:14.309Z,1025.60
2022-10-18T14:25:14.522Z,1025.71
2022-10-18T14:26:14.660Z,1025.65
2022-10-18T14:27:14.852Z,1025.63
2022-10-18T14:28:15.040Z,1025.65
2022-10-18T14:29:15.246Z,1025.67
2022-10-18T14:30:15.386Z,1025.71
2022-10-18T14:31:15.588Z,1025.68
2022-10-18T14:32:15.806Z,1025.62
2022-10-18T14:33:15.965Z,1025.66
2022-10-18T14:34:16.201Z,1025.69
2022-10-18T14:35:33.266Z,1025.69
2022-10-18T14:36:16.577Z,1025.67
2022-10-18T14:37:16.742Z,1025.68
2022-10-18T14:38:16.954Z,1025.74
2022-10-18T14:39:17.140Z,1025.72
2022-10-18T14:40:17.323Z,1025.71
2022-10-18T14:41:17.478Z,1025.71
2022-10-18T14:42:17.699Z,1025.74
2022-10-18T14:43:17.887Z,1025.71
2022-10-18T14:44:18.080Z,1025.73
2022-10-18T14:45:18.285Z,1025.71
2022-10-18T14:46:18.459Z,1025.73
2022-10-18T14:47:18.637Z,1025.79
2022-10-18T14:48:18.850Z,1025.73
2022-10-18T14:49:19.062Z,1025.72
2022-10-18T14:50:19.204Z,1025.72
2022-10-18T14:51:19.377Z,1025.73
2022-10-18T14:52:21.961Z,1025.73
2022-10-18T14:53:19.761Z,1025.67
2022-10-18T14:54:19.977Z,1025.69
2022-10-18T14:55:20.185Z,1025.69
2022-10-18T14:56:20.343Z,1025.73
2022-10-18T14:57:20.542Z,1025.73
2022-10-18T14:58:20.747Z,1025.72
2022-10-18T14:59:20.934Z,1025.72
2022-10-18T15:00:21.162Z,1025.79
2022-10-18T15:01:21.369Z,1025.77
2022-10-18T15:02:21.506Z,1025.77
2022-10-18T15:03:21.703Z,1025.79
2022-10-18T15:04:27.661Z,1025.79
2022-10-18T15:05:22.119Z,1025.81
2022-10-18T15:06:22.275Z,1025.75
2022-10-18T15:07:22.476Z,1025.77
2022-10-18T15:08:22.677Z,1025.74
2022-10-18T15:09:22.979Z,1025.75
2022-10-18T15:10:23.103Z,1025.79
2022-10-18T15:11:23.262Z,1025.77
2022-10-18T15:12:23.492Z,1025.73
2022-10-18T15:13:23.625Z,1025.79
2022-10-18T15:14:23.834Z,1025.81
2022-10-18T15:15:23.997Z,1025.84
2022-10-18T15:16:24.167Z,1025.82
2022-10-18T15:17:24.534Z,1025.86
2022-10-18T15:18:24.684Z,1025.86
2022-10-18T15:19:24.889Z,1025.84
2022-10-18T15:20:24.913Z,1025.84
2022-10-18T15:21:25.131Z,1025.87
2022-10-18T15:22:43.433Z,1025.84
2022-10-18T15:23:25.546Z,1025.85
2022-10-18T15:24:25.744Z,1025.83
2022-10-18T15:25:30.846Z,1025.84
2022-10-18T15:26:26.115Z,1025.76
2022-10-18T15:27:26.284Z,1025.81
2022-10-18T15:28:26.469Z,1025.83
2022-10-18T15:29:26.620Z,1025.90
2022-10-18T15:30:26.864Z,1025.87
2022-10-18T15:31:26.997Z,1025.87
2022-10-18T15:32:27.216Z,1025.82
2022-10-18T15:33:27.399Z,1025.80
2022-10-18T15:34:27.602Z,1025.76
2022-10-18T15:35:27.757Z,1025.77
2022-10-18T15:36:27.947Z,1025.80
2022-10-18T15:37:28.118Z,1025.75
2022-10-18T15:38:28.346Z,1025.74
2022-10-18T15:39:28.497Z,1025.77
2022-10-18T15:40:28.702Z,1025.75
2022-10-18T15:41:28.871Z,1025.74
2022-10-18T15:42:29.135Z,1025.70
2022-10-18T15:43:29.306Z,1025.71
2022-10-18T15:44:29.511Z,1025.72
2022-10-18T15:45:29.675Z,1025.76
2022-10-18T15:46:29.860Z,1025.75
2022-10-18T15:47:30.258Z,1025.72
2022-10-18T15:48:30.226Z,1025.79
2022-10-18T15:49:30.418Z,1025.78
2022-10-18T15:50:30.576Z,1025.76
2022-10-18T15:51:30.767Z,1025.80
2022-10-18T15:52:36.650Z,1025.79
2022-10-18T15:53:31.121Z,1025.83
2022-10-18T15:54:31.320Z,1025.78
2022-10-18T15:55:31.438Z,1025.77
2022-10-18T15:56:31.614Z,1025.77
2022-10-18T15:57:31.813Z,1025.82
2022-10-18T15:58:32.000Z,1025.78
2022-10-18T15:59:32.272Z,1025.79
2022-10-18T16:00:32.434Z,1025.77
2022-10-18T16:01:32.678Z,1025.74
2022-10-18T16:02:32.784Z,1025.77
2022-10-18T16:03:32.945Z,1025.81
2022-10-18T16:04:33.151Z,1025.80
2022-10-18T16:05:33.298Z,1025.79
2022-10-18T16:06:33.499Z,1025.80
2022-10-18T16:07:33.997Z,1025.76
2022-10-18T16:08:33.983Z,1025.75
2022-10-18T16:09:34.292Z,1025.76
2022-10-18T16:10:34.444Z,1025.69
2022-10-18T16:11:34.612Z,1025.67
2022-10-18T16:12:34.922Z,1025.70
2022-10-18T16:13:35.087Z,1025.67
2022-10-18T16:14:35.255Z,1025.61
2022-10-18T16:15:35.431Z,1025.65
2022-10-18T16:16:35.611Z,1025.71
2022-10-18T16:17:36.018Z,1025.73